sensor_id;sensor_type;location;lat;lon;timestamp;P1;durP1;ratioP1;P2;durP2;ratioP2
3006;SDS011;1513;47.650;10.720;2023-08-17T00:00:46;6.57;;;4.80;;
3006;SDS011;1513;47.650;10.720;2023-08-17T00:03:13;5.40;;;4.87;;
3006;SDS011;1513;47.650;10.720;2023-08-17T00:05:39;4.70;;;4.20;;
3006;SDS011;1513;47.650;10.720;2023-08-17T00:08:06;5.37;;;4.87;;
3006;SDS011;1513;47.650;10.720;2023-08-17T00:10:32;6.67;;;5.40;;
3006;SDS011;1513;47.650;10.720;2023-08-17T00:12:58;6.13;;;5.40;;
3006;SDS011;1513;47.650;10.720;2023-08-17T00:15:25;9.03;;;4.43;;
3006;SDS011;1513;47.650;10.720;2023-08-17T00:17:51;5.00;;;4.60;;
3006;SDS011;1513;47.650;10.720;2023-08-17T00:20:18;15.03;;;4.53;;
3006;SDS011;1513;47.650;10.720;2023-08-17T00:22:44;8.57;;;4.67;;
3006;SDS011;1513;47.650;10.720;2023-08-17T00:25:11;6.30;;;4.17;;
3006;SDS011;1513;47.650;10.720;2023-08-17T00:27:37;4.50;;;4.13;;
3006;SDS011;1513;47.650;10.720;2023-08-17T00:30:04;12.00;;;9.17;;
3006;SDS011;1513;47.650;10.720;2023-08-17T00:32:30;13.20;;;10.20;;
3006;SDS011;1513;47.650;10.720;2023-08-17T00:34:57;11.40;;;9.40;;
3006;SDS011;1513;47.650;10.720;2023-08-17T00:37:23;10.43;;;8.50;;
3006;SDS011;1513;47.650;10.720;2023-08-17T00:39:49;10.17;;;8.37;;
3006;SDS011;1513;47.650;10.720;2023-08-17T00:42:16;14.03;;;8.33;;
3006;SDS011;1513;47.650;10.720;2023-08-17T00:44:42;11.73;;;9.20;;
3006;SDS011;1513;47.650;10.720;2023-08-17T00:47:08;11.37;;;9.00;;
3006;SDS011;1513;47.650;10.720;2023-08-17T00:49:35;11.03;;;8.40;;
3006;SDS011;1513;47.650;10.720;2023-08-17T00:52:01;7.87;;;7.07;;
3006;SDS011;1513;47.650;10.720;2023-08-17T00:54:30;12.57;;;8.17;;
3006;SDS011;1513;47.650;10.720;2023-08-17T00:56:57;11.37;;;9.57;;
3006;SDS011;1513;47.650;10.720;2023-08-17T00:59:24;11.00;;;9.30;;
3006;SDS011;1513;47.650;10.720;2023-08-17T01:01:50;15.93;;;11.00;;
3006;SDS011;1513;47.650;10.720;2023-08-17T01:04:17;13.73;;;10.27;;
3006;SDS011;1513;47.650;10.720;2023-08-17T01:06:45;13.23;;;10.47;;
3006;SDS011;1513;47.650;10.720;2023-08-17T01:09:11;12.50;;;10.03;;
3006;SDS011;1513;47.650;10.720;2023-08-17T01:11:44;11.50;;;9.50;;
3006;SDS011;1513;47.650;10.720;2023-08-17T01:16:56;13.50;;;10.20;;
3006;SDS011;1513;47.650;10.720;2023-08-17T01:19:43;15.40;;;10.57;;
3006;SDS011;1513;47.650;10.720;2023-08-17T01:22:11;13.97;;;10.43;;
3006;SDS011;1513;47.650;10.720;2023-08-17T01:24:39;19.13;;;11.97;;
3006;SDS011;1513;47.650;10.720;2023-08-17T01:27:06;13.30;;;11.30;;
3006;SDS011;1513;47.650;10.720;2023-08-17T01:29:32;15.47;;;11.13;;
3006;SDS011;1513;47.650;10.720;2023-08-17T01:34:49;20.17;;;11.30;;
3006;SDS011;1513;47.650;10.720;2023-08-17T01:37:23;16.93;;;12.43;;
3006;SDS011;1513;47.650;10.720;2023-08-17T01:39:52;14.60;;;11.27;;
3006;SDS011;1513;47.650;10.720;2023-08-17T01:42:22;15.90;;;11.50;;
3006;SDS011;1513;47.650;10.720;2023-08-17T01:44:49;14.10;;;11.53;;
3006;SDS011;1513;47.650;10.720;2023-08-17T01:47:16;15.07;;;12.40;;
3006;SDS011;1513;47.650;10.720;2023-08-17T01:49:47;16.40;;;12.00;;
3006;SDS011;1513;47.650;10.720;2023-08-17T01:52:13;14.73;;;11.73;;
3006;SDS011;1513;47.650;10.720;2023-08-17T01:54:40;15.97;;;11.77;;
3006;SDS011;1513;47.650;10.720;2023-08-17T01:57:06;14.77;;;11.60;;
3006;SDS011;1513;47.650;10.720;2023-08-17T01:59:32;12.17;;;10.50;;
3006;SDS011;1513;47.650;10.720;2023-08-17T02:01:59;15.20;;;10.77;;
3006;SDS011;1513;47.650;10.720;2023-08-17T02:04:25;14.60;;;11.23;;
3006;SDS011;1513;47.650;10.720;2023-08-17T02:06:52;12.53;;;10.87;;
3006;SDS011;1513;47.650;10.720;2023-08-17T02:09:18;14.23;;;11.37;;
3006;SDS011;1513;47.650;10.720;2023-08-17T02:11:44;15.30;;;10.60;;
3006;SDS011;1513;47.650;10.720;2023-08-17T02:14:11;12.93;;;10.80;;
3006;SDS011;1513;47.650;10.720;2023-08-17T02:16:37;13.57;;;10.77;;
3006;SDS011;1513;47.650;10.720;2023-08-17T02:19:03;17.87;;;11.83;;
3006;SDS011;1513;47.650;10.720;2023-08-17T02:21:30;15.77;;;11.33;;
3006;SDS011;1513;47.650;10.720;2023-08-17T02:23:56;15.73;;;12.20;;
3006;SDS011;1513;47.650;10.720;2023-08-17T02:26:22;20.23;;;12.33;;
3006;SDS011;1513;47.650;10.720;2023-08-17T02:28:49;15.10;;;11.43;;
3006;SDS011;1513;47.650;10.720;2023-08-17T02:31:15;17.40;;;11.40;;
3006;SDS011;1513;47.650;10.720;2023-08-17T02:33:41;14.63;;;11.13;;
3006;SDS011;1513;47.650;10.720;2023-08-17T02:36:08;15.10;;;11.63;;
3006;SDS011;1513;47.650;10.720;2023-08-17T02:38:34;16.33;;;11.97;;
3006;SDS011;1513;47.650;10.720;2023-08-17T02:41:00;15.13;;;10.80;;
3006;SDS011;1513;47.650;10.720;2023-08-17T02:43:27;13.27;;;10.13;;
3006;SDS011;1513;47.650;10.720;2023-08-17T02:45:54;13.60;;;10.63;;
3006;SDS011;1513;47.650;10.720;2023-08-17T02:48:20;15.13;;;11.47;;
3006;SDS011;1513;47.650;10.720;2023-08-17T02:50:46;15.37;;;11.37;;
3006;SDS011;1513;47.650;10.720;2023-08-17T02:53:13;13.03;;;10.77;;
3006;SDS011;1513;47.650;10.720;2023-08-17T02:55:39;13.97;;;11.20;;
3006;SDS011;1513;47.650;10.720;2023-08-17T02:58:07;15.57;;;10.87;;
3006;SDS011;1513;47.650;10.720;2023-08-17T03:00:33;20.10;;;11.70;;
3006;SDS011;1513;47.650;10.720;2023-08-17T03:02:59;15.17;;;10.70;;
3006;SDS011;1513;47.650;10.720;2023-08-17T03:05:26;16.10;;;12.20;;
3006;SDS011;1513;47.650;10.720;2023-08-17T03:07:53;16.00;;;10.97;;
3006;SDS011;1513;47.650;10.720;2023-08-17T03:10:20;17.07;;;13.53;;
3006;SDS011;1513;47.650;10.720;2023-08-17T03:12:46;17.23;;;12.80;;
3006;SDS011;1513;47.650;10.720;2023-08-17T03:15:12;15.90;;;12.53;;
3006;SDS011;1513;47.650;10.720;2023-08-17T03:17:39;15.67;;;12.27;;
3006;SDS011;1513;47.650;10.720;2023-08-17T03:20:05;16.40;;;12.07;;
3006;SDS011;1513;47.650;10.720;2023-08-17T03:22:33;15.53;;;12.30;;
3006;SDS011;1513;47.650;10.720;2023-08-17T03:25:00;19.87;;;11.47;;
3006;SDS011;1513;47.650;10.720;2023-08-17T03:27:28;15.50;;;11.40;;
3006;SDS011;1513;47.650;10.720;2023-08-17T03:29:54;14.43;;;10.83;;
3006;SDS011;1513;47.650;10.720;2023-08-17T03:32:20;16.83;;;11.30;;
3006;SDS011;1513;47.650;10.720;2023-08-17T03:34:47;13.77;;;10.83;;
3006;SDS011;1513;47.650;10.720;2023-08-17T03:37:13;14.67;;;10.70;;
3006;SDS011;1513;47.650;10.720;2023-08-17T03:39:39;23.93;;;11.03;;
3006;SDS011;1513;47.650;10.720;2023-08-17T03:42:06;13.80;;;10.47;;
3006;SDS011;1513;47.650;10.720;2023-08-17T03:44:32;14.30;;;10.93;;
3006;SDS011;1513;47.650;10.720;2023-08-17T03:46:58;15.20;;;11.33;;
3006;SDS011;1513;47.650;10.720;2023-08-17T03:49:25;15.03;;;11.27;;
3006;SDS011;1513;47.650;10.720;2023-08-17T03:51:52;14.00;;;9.87;;
3006;SDS011;1513;47.650;10.720;2023-08-17T03:54:18;9.00;;;7.90;;
3006;SDS011;1513;47.650;10.720;2023-08-17T03:56:46;9.20;;;7.30;;
3006;SDS011;1513;47.650;10.720;2023-08-17T03:59:13;10.73;;;7.50;;
3006;SDS011;1513;47.650;10.720;2023-08-17T04:01:39;9.37;;;7.43;;
3006;SDS011;1513;47.650;10.720;2023-08-17T04:04:07;11.47;;;7.80;;
3006;SDS011;1513;47.650;10.720;2023-08-17T04:06:34;9.27;;;7.53;;
3006;SDS011;1513;47.650;10.720;2023-08-17T04:09:01;9.10;;;7.43;;
3006;SDS011;1513;47.650;10.720;2023-08-17T04:11:28;9.37;;;7.57;;
3006;SDS011;1513;47.650;10.720;2023-08-17T04:13:54;12.53;;;8.10;;
3006;SDS011;1513;47.650;10.720;2023-08-17T04:16:21;14.50;;;8.20;;
3006;SDS011;1513;47.650;10.720;2023-08-17T04:18:47;11.83;;;7.33;;
3006;SDS011;1513;47.650;10.720;2023-08-17T04:21:14;8.60;;;7.20;;
3006;SDS011;1513;47.650;10.720;2023-08-17T04:23:41;11.87;;;6.87;;
3006;SDS011;1513;47.650;10.720;2023-08-17T04:26:07;9.87;;;7.43;;
3006;SDS011;1513;47.650;10.720;2023-08-17T04:28:34;9.13;;;7.47;;
3006;SDS011;1513;47.650;10.720;2023-08-17T04:31:00;11.40;;;7.33;;
3006;SDS011;1513;47.650;10.720;2023-08-17T04:33:31;8.53;;;7.20;;
3006;SDS011;1513;47.650;10.720;2023-08-17T04:35:57;14.30;;;9.00;;
3006;SDS011;1513;47.650;10.720;2023-08-17T04:38:26;19.00;;;12.03;;
3006;SDS011;1513;47.650;10.720;2023-08-17T04:40:52;13.60;;;8.93;;
3006;SDS011;1513;47.650;10.720;2023-08-17T04:43:18;15.13;;;9.60;;
3006;SDS011;1513;47.650;10.720;2023-08-17T04:45:45;13.60;;;8.70;;
3006;SDS011;1513;47.650;10.720;2023-08-17T04:48:14;11.90;;;7.40;;
3006;SDS011;1513;47.650;10.720;2023-08-17T04:50:40;12.07;;;8.03;;
3006;SDS011;1513;47.650;10.720;2023-08-17T04:53:06;15.40;;;8.43;;
3006;SDS011;1513;47.650;10.720;2023-08-17T04:55:33;9.93;;;8.00;;
3006;SDS011;1513;47.650;10.720;2023-08-17T04:58:00;11.60;;;8.97;;
3006;SDS011;1513;47.650;10.720;2023-08-17T05:00:27;13.27;;;8.67;;
3006;SDS011;1513;47.650;10.720;2023-08-17T05:02:54;11.93;;;7.90;;
3006;SDS011;1513;47.650;10.720;2023-08-17T05:05:23;12.67;;;8.00;;
3006;SDS011;1513;47.650;10.720;2023-08-17T05:07:49;12.50;;;7.93;;
3006;SDS011;1513;47.650;10.720;2023-08-17T05:10:17;12.30;;;7.60;;
3006;SDS011;1513;47.650;10.720;2023-08-17T05:12:44;10.83;;;7.80;;
3006;SDS011;1513;47.650;10.720;2023-08-17T05:15:11;10.97;;;7.33;;
3006;SDS011;1513;47.650;10.720;2023-08-17T05:17:38;10.47;;;6.67;;
3006;SDS011;1513;47.650;10.720;2023-08-17T05:20:06;8.70;;;6.33;;
3006;SDS011;1513;47.650;10.720;2023-08-17T05:22:33;13.37;;;6.50;;
3006;SDS011;1513;47.650;10.720;2023-08-17T05:25:00;9.60;;;5.30;;
3006;SDS011;1513;47.650;10.720;2023-08-17T05:27:26;7.47;;;6.10;;
3006;SDS011;1513;47.650;10.720;2023-08-17T05:29:53;9.43;;;5.63;;
3006;SDS011;1513;47.650;10.720;2023-08-17T05:32:19;8.30;;;5.50;;
3006;SDS011;1513;47.650;10.720;2023-08-17T05:34:48;8.30;;;5.00;;
3006;SDS011;1513;47.650;10.720;2023-08-17T05:37:14;5.17;;;4.43;;
3006;SDS011;1513;47.650;10.720;2023-08-17T05:39:42;5.57;;;5.03;;
3006;SDS011;1513;47.650;10.720;2023-08-17T05:42:08;7.07;;;5.27;;
3006;SDS011;1513;47.650;10.720;2023-08-17T05:44:35;16.23;;;9.77;;
3006;SDS011;1513;47.650;10.720;2023-08-17T05:47:01;12.33;;;9.10;;
3006;SDS011;1513;47.650;10.720;2023-08-17T05:49:27;8.87;;;7.10;;
3006;SDS011;1513;47.650;10.720;2023-08-17T05:51:54;4.50;;;4.10;;
3006;SDS011;1513;47.650;10.720;2023-08-17T05:54:20;7.70;;;3.60;;
3006;SDS011;1513;47.650;10.720;2023-08-17T05:56:46;3.53;;;3.23;;
3006;SDS011;1513;47.650;10.720;2023-08-17T05:59:13;3.67;;;2.78;;
3006;SDS011;1513;47.650;10.720;2023-08-17T06:01:40;2.60;;;2.40;;
3006;SDS011;1513;47.650;10.720;2023-08-17T06:04:06;2.97;;;2.50;;
3006;SDS011;1513;47.650;10.720;2023-08-17T06:06:33;2.60;;;2.40;;
3006;SDS011;1513;47.650;10.720;2023-08-17T06:08:59;2.33;;;1.90;;
3006;SDS011;1513;47.650;10.720;2023-08-17T06:11:26;4.43;;;2.03;;
3006;SDS011;1513;47.650;10.720;2023-08-17T06:13:53;2.22;;;2.10;;
3006;SDS011;1513;47.650;10.720;2023-08-17T06:16:20;6.03;;;2.55;;
3006;SDS011;1513;47.650;10.720;2023-08-17T06:18:46;2.35;;;2.15;;
3006;SDS011;1513;47.650;10.720;2023-08-17T06:21:12;2.45;;;2.35;;
3006;SDS011;1513;47.650;10.720;2023-08-17T06:23:38;2.53;;;2.20;;
3006;SDS011;1513;47.650;10.720;2023-08-17T06:26:05;2.47;;;2.28;;
3006;SDS011;1513;47.650;10.720;2023-08-17T06:28:33;2.25;;;2.13;;
3006;SDS011;1513;47.650;10.720;2023-08-17T06:30:59;2.40;;;2.20;;
3006;SDS011;1513;47.650;10.720;2023-08-17T06:33:25;2.67;;;2.45;;
3006;SDS011;1513;47.650;10.720;2023-08-17T06:35:52;5.18;;;2.53;;
3006;SDS011;1513;47.650;10.720;2023-08-17T06:38:18;3.40;;;2.15;;
3006;SDS011;1513;47.650;10.720;2023-08-17T06:40:45;4.05;;;2.22;;
3006;SDS011;1513;47.650;10.720;2023-08-17T06:43:11;4.22;;;2.42;;
3006;SDS011;1513;47.650;10.720;2023-08-17T06:45:38;3.35;;;3.00;;
3006;SDS011;1513;47.650;10.720;2023-08-17T06:48:04;4.00;;;2.60;;
3006;SDS011;1513;47.650;10.720;2023-08-17T06:50:31;6.38;;;2.40;;
3006;SDS011;1513;47.650;10.720;2023-08-17T06:52:57;2.30;;;2.08;;
3006;SDS011;1513;47.650;10.720;2023-08-17T06:55:23;2.60;;;2.30;;
3006;SDS011;1513;47.650;10.720;2023-08-17T06:57:50;2.60;;;2.50;;
3006;SDS011;1513;47.650;10.720;2023-08-17T07:00:17;2.85;;;2.33;;
3006;SDS011;1513;47.650;10.720;2023-08-17T07:02:47;5.35;;;2.65;;
3006;SDS011;1513;47.650;10.720;2023-08-17T07:05:17;3.00;;;2.70;;
3006;SDS011;1513;47.650;10.720;2023-08-17T07:07:43;2.65;;;2.40;;
3006;SDS011;1513;47.650;10.720;2023-08-17T07:10:10;2.42;;;2.25;;
3006;SDS011;1513;47.650;10.720;2023-08-17T07:12:37;5.38;;;2.10;;
3006;SDS011;1513;47.650;10.720;2023-08-17T07:15:04;2.83;;;2.50;;
3006;SDS011;1513;47.650;10.720;2023-08-17T07:17:31;4.20;;;2.40;;
3006;SDS011;1513;47.650;10.720;2023-08-17T07:19:59;2.25;;;2.15;;
3006;SDS011;1513;47.650;10.720;2023-08-17T07:22:25;2.20;;;2.10;;
3006;SDS011;1513;47.650;10.720;2023-08-17T07:24:51;2.65;;;2.45;;
3006;SDS011;1513;47.650;10.720;2023-08-17T07:27:18;4.18;;;2.70;;
3006;SDS011;1513;47.650;10.720;2023-08-17T07:29:44;2.90;;;2.70;;
3006;SDS011;1513;47.650;10.720;2023-08-17T07:32:10;4.55;;;2.35;;
3006;SDS011;1513;47.650;10.720;2023-08-17T07:34:37;3.55;;;2.72;;
3006;SDS011;1513;47.650;10.720;2023-08-17T07:37:04;2.40;;;2.30;;
3006;SDS011;1513;47.650;10.720;2023-08-17T07:39:31;10.02;;;2.50;;
3006;SDS011;1513;47.650;10.720;2023-08-17T07:41:58;3.17;;;2.42;;
3006;SDS011;1513;47.650;10.720;2023-08-17T07:44:24;2.58;;;2.47;;
3006;SDS011;1513;47.650;10.720;2023-08-17T07:46:50;2.55;;;2.38;;
3006;SDS011;1513;47.650;10.720;2023-08-17T07:49:17;2.92;;;2.72;;
3006;SDS011;1513;47.650;10.720;2023-08-17T07:51:44;2.80;;;2.60;;
3006;SDS011;1513;47.650;10.720;2023-08-17T07:54:10;4.35;;;2.35;;
3006;SDS011;1513;47.650;10.720;2023-08-17T07:56:36;2.38;;;2.28;;
3006;SDS011;1513;47.650;10.720;2023-08-17T07:59:03;5.53;;;2.35;;
3006;SDS011;1513;47.650;10.720;2023-08-17T08:01:29;3.33;;;2.47;;
3006;SDS011;1513;47.650;10.720;2023-08-17T08:03:55;2.30;;;2.20;;
3006;SDS011;1513;47.650;10.720;2023-08-17T08:06:22;2.55;;;2.35;;
3006;SDS011;1513;47.650;10.720;2023-08-17T08:08:48;5.32;;;2.55;;
3006;SDS011;1513;47.650;10.720;2023-08-17T08:11:15;2.70;;;2.50;;
3006;SDS011;1513;47.650;10.720;2023-08-17T08:13:41;8.75;;;3.13;;
3006;SDS011;1513;47.650;10.720;2023-08-17T08:16:08;4.20;;;2.97;;
3006;SDS011;1513;47.650;10.720;2023-08-17T08:18:34;3.42;;;2.47;;
3006;SDS011;1513;47.650;10.720;2023-08-17T08:21:00;2.97;;;2.78;;
3006;SDS011;1513;47.650;10.720;2023-08-17T08:23:27;4.53;;;2.95;;
3006;SDS011;1513;47.650;10.720;2023-08-17T08:25:54;3.00;;;2.65;;
3006;SDS011;1513;47.650;10.720;2023-08-17T08:28:21;2.88;;;2.53;;
3006;SDS011;1513;47.650;10.720;2023-08-17T08:30:47;3.30;;;3.00;;
3006;SDS011;1513;47.650;10.720;2023-08-17T08:33:13;9.25;;;3.05;;
3006;SDS011;1513;47.650;10.720;2023-08-17T08:35:40;7.10;;;3.20;;
3006;SDS011;1513;47.650;10.720;2023-08-17T08:38:06;4.22;;;3.17;;
3006;SDS011;1513;47.650;10.720;2023-08-17T08:40:32;4.85;;;3.45;;
3006;SDS011;1513;47.650;10.720;2023-08-17T08:42:58;2.83;;;2.55;;
3006;SDS011;1513;47.650;10.720;2023-08-17T08:45:26;3.47;;;3.03;;
3006;SDS011;1513;47.650;10.720;2023-08-17T08:47:53;3.80;;;3.55;;
3006;SDS011;1513;47.650;10.720;2023-08-17T08:50:20;9.13;;;3.88;;
3006;SDS011;1513;47.650;10.720;2023-08-17T08:52:53;4.80;;;3.50;;
3006;SDS011;1513;47.650;10.720;2023-08-17T08:55:26;6.72;;;3.30;;
3006;SDS011;1513;47.650;10.720;2023-08-17T08:58:06;6.93;;;4.03;;
3006;SDS011;1513;47.650;10.720;2023-08-17T09:00:33;4.23;;;3.00;;
3006;SDS011;1513;47.650;10.720;2023-08-17T09:03:01;3.80;;;3.50;;
3006;SDS011;1513;47.650;10.720;2023-08-17T09:05:29;6.30;;;3.50;;
3006;SDS011;1513;47.650;10.720;2023-08-17T09:07:57;3.57;;;3.27;;
3006;SDS011;1513;47.650;10.720;2023-08-17T09:10:24;3.60;;;3.30;;
3006;SDS011;1513;47.650;10.720;2023-08-17T09:12:50;4.17;;;3.87;;
3006;SDS011;1513;47.650;10.720;2023-08-17T09:15:16;4.00;;;3.70;;
3006;SDS011;1513;47.650;10.720;2023-08-17T09:17:43;3.50;;;3.30;;
3006;SDS011;1513;47.650;10.720;2023-08-17T09:20:10;4.73;;;4.20;;
3006;SDS011;1513;47.650;10.720;2023-08-17T09:22:40;4.40;;;4.00;;
3006;SDS011;1513;47.650;10.720;2023-08-17T09:25:08;4.60;;;4.20;;
3006;SDS011;1513;47.650;10.720;2023-08-17T09:27:36;6.80;;;3.80;;
3006;SDS011;1513;47.650;10.720;2023-08-17T09:30:06;6.47;;;3.80;;
3006;SDS011;1513;47.650;10.720;2023-08-17T09:32:36;5.00;;;3.80;;
3006;SDS011;1513;47.650;10.720;2023-08-17T09:35:03;4.17;;;3.83;;
3006;SDS011;1513;47.650;10.720;2023-08-17T09:37:31;4.33;;;4.03;;
3006;SDS011;1513;47.650;10.720;2023-08-17T09:39:57;5.87;;;4.10;;
3006;SDS011;1513;47.650;10.720;2023-08-17T09:42:24;5.27;;;3.87;;
3006;SDS011;1513;47.650;10.720;2023-08-17T09:44:52;4.10;;;3.80;;
3006;SDS011;1513;47.650;10.720;2023-08-17T09:47:19;4.17;;;3.87;;
3006;SDS011;1513;47.650;10.720;2023-08-17T09:49:51;6.33;;;3.83;;
3006;SDS011;1513;47.650;10.720;2023-08-17T09:52:18;4.33;;;4.00;;
3006;SDS011;1513;47.650;10.720;2023-08-17T09:54:49;4.40;;;4.10;;
3006;SDS011;1513;47.650;10.720;2023-08-17T10:01:04;6.33;;;4.00;;
3006;SDS011;1513;47.650;10.720;2023-08-17T10:03:32;4.23;;;3.90;;
3006;SDS011;1513;47.650;10.720;2023-08-17T10:06:09;5.50;;;3.80;;
3006;SDS011;1513;47.650;10.720;2023-08-17T10:08:44;4.00;;;3.70;;
3006;SDS011;1513;47.650;10.720;2023-08-17T10:11:12;4.40;;;4.00;;
3006;SDS011;1513;47.650;10.720;2023-08-17T10:13:48;4.53;;;4.20;;
3006;SDS011;1513;47.650;10.720;2023-08-17T10:16:26;4.70;;;4.40;;
3006;SDS011;1513;47.650;10.720;2023-08-17T10:19:01;4.77;;;4.37;;
3006;SDS011;1513;47.650;10.720;2023-08-17T10:21:40;6.70;;;4.80;;
3006;SDS011;1513;47.650;10.720;2023-08-17T10:24:11;4.93;;;4.43;;
3006;SDS011;1513;47.650;10.720;2023-08-17T10:26:37;7.67;;;4.00;;
3006;SDS011;1513;47.650;10.720;2023-08-17T10:29:04;12.33;;;4.90;;
3006;SDS011;1513;47.650;10.720;2023-08-17T10:31:33;5.23;;;4.50;;
3006;SDS011;1513;47.650;10.720;2023-08-17T10:34:00;5.27;;;4.80;;
3006;SDS011;1513;47.650;10.720;2023-08-17T10:36:27;4.90;;;3.93;;
3006;SDS011;1513;47.650;10.720;2023-08-17T10:41:48;5.07;;;4.30;;
3006;SDS011;1513;47.650;10.720;2023-08-17T10:45:01;4.00;;;3.70;;
3006;SDS011;1513;47.650;10.720;2023-08-17T10:47:18;4.00;;;3.40;;
3006;SDS011;1513;47.650;10.720;2023-08-17T10:49:58;5.70;;;4.30;;
3006;SDS011;1513;47.650;10.720;2023-08-17T10:52:47;4.40;;;4.00;;
3006;SDS011;1513;47.650;10.720;2023-08-17T10:55:14;4.30;;;3.90;;
3006;SDS011;1513;47.650;10.720;2023-08-17T10:57:41;4.90;;;4.27;;
3006;SDS011;1513;47.650;10.720;2023-08-17T11:02:53;4.23;;;3.93;;
3006;SDS011;1513;47.650;10.720;2023-08-17T11:08:05;6.30;;;4.03;;
3006;SDS011;1513;47.650;10.720;2023-08-17T11:10:34;4.83;;;4.47;;
3006;SDS011;1513;47.650;10.720;2023-08-17T11:13:01;4.27;;;3.97;;
3006;SDS011;1513;47.650;10.720;2023-08-17T11:15:37;7.07;;;4.13;;
3006;SDS011;1513;47.650;10.720;2023-08-17T11:18:09;6.07;;;4.27;;
3006;SDS011;1513;47.650;10.720;2023-08-17T11:20:37;7.20;;;4.40;;
3006;SDS011;1513;47.650;10.720;2023-08-17T11:23:05;4.00;;;3.70;;
3006;SDS011;1513;47.650;10.720;2023-08-17T11:25:32;4.83;;;4.27;;
3006;SDS011;1513;47.650;10.720;2023-08-17T11:28:02;4.70;;;4.30;;
3006;SDS011;1513;47.650;10.720;2023-08-17T11:30:29;5.50;;;4.50;;
3006;SDS011;1513;47.650;10.720;2023-08-17T11:32:56;7.83;;;4.00;;
3006;SDS011;1513;47.650;10.720;2023-08-17T11:35:23;4.13;;;3.50;;
3006;SDS011;1513;47.650;10.720;2023-08-17T11:37:49;8.63;;;4.30;;
3006;SDS011;1513;47.650;10.720;2023-08-17T11:40:16;5.37;;;3.57;;
3006;SDS011;1513;47.650;10.720;2023-08-17T11:42:43;4.30;;;3.90;;
3006;SDS011;1513;47.650;10.720;2023-08-17T11:45:10;6.13;;;4.50;;
3006;SDS011;1513;47.650;10.720;2023-08-17T11:47:39;4.83;;;4.43;;
3006;SDS011;1513;47.650;10.720;2023-08-17T11:50:07;4.70;;;4.30;;
3006;SDS011;1513;47.650;10.720;2023-08-17T11:52:35;6.17;;;3.80;;
3006;SDS011;1513;47.650;10.720;2023-08-17T11:55:07;5.17;;;4.67;;
3006;SDS011;1513;47.650;10.720;2023-08-17T11:57:35;4.77;;;3.87;;
3006;SDS011;1513;47.650;10.720;2023-08-17T12:00:02;5.40;;;4.80;;
3006;SDS011;1513;47.650;10.720;2023-08-17T12:02:31;4.90;;;4.40;;
3006;SDS011;1513;47.650;10.720;2023-08-17T12:05:03;5.93;;;3.83;;
3006;SDS011;1513;47.650;10.720;2023-08-17T12:07:31;4.93;;;4.53;;
3006;SDS011;1513;47.650;10.720;2023-08-17T12:09:58;6.90;;;4.30;;
3006;SDS011;1513;47.650;10.720;2023-08-17T12:12:24;5.00;;;4.50;;
3006;SDS011;1513;47.650;10.720;2023-08-17T12:14:53;4.90;;;4.50;;
3006;SDS011;1513;47.650;10.720;2023-08-17T12:17:20;5.27;;;4.20;;
3006;SDS011;1513;47.650;10.720;2023-08-17T12:19:50;5.67;;;4.33;;
3006;SDS011;1513;47.650;10.720;2023-08-17T12:22:22;4.63;;;4.23;;
3006;SDS011;1513;47.650;10.720;2023-08-17T12:24:51;5.23;;;4.20;;
3006;SDS011;1513;47.650;10.720;2023-08-17T12:27:17;4.53;;;3.80;;
3006;SDS011;1513;47.650;10.720;2023-08-17T12:29:47;4.87;;;3.90;;
3006;SDS011;1513;47.650;10.720;2023-08-17T12:32:14;8.00;;;4.03;;
3006;SDS011;1513;47.650;10.720;2023-08-17T12:34:42;4.50;;;3.63;;
3006;SDS011;1513;47.650;10.720;2023-08-17T12:37:09;6.63;;;4.87;;
3006;SDS011;1513;47.650;10.720;2023-08-17T12:39:36;7.63;;;4.80;;
3006;SDS011;1513;47.650;10.720;2023-08-17T12:42:03;5.03;;;4.33;;
3006;SDS011;1513;47.650;10.720;2023-08-17T12:44:29;5.30;;;3.73;;
3006;SDS011;1513;47.650;10.720;2023-08-17T12:46:56;5.17;;;4.40;;
3006;SDS011;1513;47.650;10.720;2023-08-17T12:49:23;6.97;;;4.20;;
3006;SDS011;1513;47.650;10.720;2023-08-17T12:51:49;5.97;;;3.80;;
3006;SDS011;1513;47.650;10.720;2023-08-17T12:54:15;4.40;;;4.00;;
3006;SDS011;1513;47.650;10.720;2023-08-17T12:56:42;4.87;;;4.00;;
3006;SDS011;1513;47.650;10.720;2023-08-17T12:59:09;4.40;;;3.80;;
3006;SDS011;1513;47.650;10.720;2023-08-17T13:01:35;4.67;;;3.70;;
3006;SDS011;1513;47.650;10.720;2023-08-17T13:04:01;5.10;;;3.70;;
3006;SDS011;1513;47.650;10.720;2023-08-17T13:06:28;5.10;;;4.27;;
3006;SDS011;1513;47.650;10.720;2023-08-17T13:08:54;5.03;;;4.10;;
3006;SDS011;1513;47.650;10.720;2023-08-17T13:11:20;5.03;;;4.53;;
3006;SDS011;1513;47.650;10.720;2023-08-17T13:13:47;4.77;;;4.10;;
3006;SDS011;1513;47.650;10.720;2023-08-17T13:16:13;4.83;;;4.33;;
3006;SDS011;1513;47.650;10.720;2023-08-17T13:18:39;5.23;;;4.10;;
3006;SDS011;1513;47.650;10.720;2023-08-17T13:21:06;4.30;;;3.90;;
3006;SDS011;1513;47.650;10.720;2023-08-17T13:23:32;4.70;;;4.20;;
3006;SDS011;1513;47.650;10.720;2023-08-17T13:25:58;4.60;;;4.10;;
3006;SDS011;1513;47.650;10.720;2023-08-17T13:28:25;4.50;;;3.90;;
3006;SDS011;1513;47.650;10.720;2023-08-17T13:30:51;5.77;;;3.80;;
3006;SDS011;1513;47.650;10.720;2023-08-17T13:33:17;9.17;;;4.97;;
3006;SDS011;1513;47.650;10.720;2023-08-17T13:35:44;4.83;;;4.33;;
3006;SDS011;1513;47.650;10.720;2023-08-17T13:38:10;6.10;;;4.50;;
3006;SDS011;1513;47.650;10.720;2023-08-17T13:40:38;6.67;;;4.50;;
3006;SDS011;1513;47.650;10.720;2023-08-17T13:43:04;4.90;;;4.50;;
3006;SDS011;1513;47.650;10.720;2023-08-17T13:45:37;5.30;;;4.57;;
3006;SDS011;1513;47.650;10.720;2023-08-17T13:48:05;5.00;;;4.50;;
3006;SDS011;1513;47.650;10.720;2023-08-17T13:50:33;6.67;;;4.80;;
3006;SDS011;1513;47.650;10.720;2023-08-17T13:53:03;5.47;;;4.90;;
3006;SDS011;1513;47.650;10.720;2023-08-17T13:55:29;4.43;;;4.03;;
3006;SDS011;1513;47.650;10.720;2023-08-17T13:57:56;5.53;;;4.97;;
3006;SDS011;1513;47.650;10.720;2023-08-17T14:00:22;7.43;;;4.90;;
3006;SDS011;1513;47.650;10.720;2023-08-17T14:02:49;5.33;;;4.40;;
3006;SDS011;1513;47.650;10.720;2023-08-17T14:05:16;8.50;;;4.83;;
3006;SDS011;1513;47.650;10.720;2023-08-17T14:07:42;6.47;;;4.73;;
3006;SDS011;1513;47.650;10.720;2023-08-17T14:10:09;5.33;;;4.60;;
3006;SDS011;1513;47.650;10.720;2023-08-17T14:12:35;4.90;;;4.30;;
3006;SDS011;1513;47.650;10.720;2023-08-17T14:15:01;6.17;;;5.10;;
3006;SDS011;1513;47.650;10.720;2023-08-17T14:17:28;6.03;;;4.23;;
3006;SDS011;1513;47.650;10.720;2023-08-17T14:19:54;5.47;;;4.97;;
3006;SDS011;1513;47.650;10.720;2023-08-17T14:22:21;12.73;;;5.90;;
3006;SDS011;1513;47.650;10.720;2023-08-17T14:24:47;16.83;;;6.90;;
3006;SDS011;1513;47.650;10.720;2023-08-17T14:27:13;13.43;;;6.10;;
3006;SDS011;1513;47.650;10.720;2023-08-17T14:29:40;14.97;;;6.80;;
3006;SDS011;1513;47.650;10.720;2023-08-17T14:32:06;15.50;;;5.70;;
3006;SDS011;1513;47.650;10.720;2023-08-17T14:34:33;8.90;;;5.43;;
3006;SDS011;1513;47.650;10.720;2023-08-17T14:39:42;10.13;;;6.20;;
3006;SDS011;1513;47.650;10.720;2023-08-17T14:45:57;27.33;;;10.70;;
3006;SDS011;1513;47.650;10.720;2023-08-17T14:48:24;6.10;;;4.40;;
3006;SDS011;1513;47.650;10.720;2023-08-17T14:58:46;13.30;;;8.30;;
3006;SDS011;1513;47.650;10.720;2023-08-17T15:01:13;11.50;;;7.50;;
3006;SDS011;1513;47.650;10.720;2023-08-17T15:03:40;19.03;;;8.70;;
3006;SDS011;1513;47.650;10.720;2023-08-17T15:06:06;8.00;;;5.30;;
3006;SDS011;1513;47.650;10.720;2023-08-17T15:08:35;13.77;;;8.03;;
3006;SDS011;1513;47.650;10.720;2023-08-17T15:11:01;17.10;;;9.23;;
3006;SDS011;1513;47.650;10.720;2023-08-17T15:13:28;15.70;;;9.73;;
3006;SDS011;1513;47.650;10.720;2023-08-17T15:15:55;11.10;;;7.90;;
3006;SDS011;1513;47.650;10.720;2023-08-17T15:18:21;11.00;;;7.57;;
3006;SDS011;1513;47.650;10.720;2023-08-17T15:20:47;15.00;;;8.10;;
3006;SDS011;1513;47.650;10.720;2023-08-17T15:23:13;13.97;;;8.60;;
3006;SDS011;1513;47.650;10.720;2023-08-17T15:25:39;12.00;;;8.00;;